sensor_id;sensor_type;location;lat;lon;timestamp;temperature;humidity
10192;DHT22;17580;50.850;4.504;2022-12-18T00:00:50;-2.90;99.90
10192;DHT22;17580;50.850;4.504;2022-12-18T00:03:17;-2.90;99.90
10192;DHT22;17580;50.850;4.504;2022-12-18T00:05:47;-2.80;99.90
10192;DHT22;17580;50.850;4.504;2022-12-18T00:08:15;-2.80;99.90
10192;DHT22;17580;50.850;4.504;2022-12-18T00:10:43;-2.90;99.90
10192;DHT22;17580;50.850;4.504;2022-12-18T00:13:11;-3.00;99.90
10192;DHT22;17580;50.850;4.504;2022-12-18T00:15:39;-3.00;99.90
10192;DHT22;17580;50.850;4.504;2022-12-18T00:18:27;-2.90;99.90
10192;DHT22;17580;50.850;4.504;2022-12-18T00:20:57;-2.70;99.90
10192;DHT22;17580;50.850;4.504;2022-12-18T00:23:24;-2.70;99.90
10192;DHT22;17580;50.850;4.504;2022-12-18T00:25:51;-2.70;99.90
10192;DHT22;17580;50.850;4.504;2022-12-18T00:28:18;-2.70;99.90
10192;DHT22;17580;50.850;4.504;2022-12-18T00:30:45;-2.70;99.90
10192;DHT22;17580;50.850;4.504;2022-12-18T00:33:12;-2.90;99.90
10192;DHT22;17580;50.850;4.504;2022-12-18T00:35:41;-3.10;99.90
10192;DHT22;17580;50.850;4.504;2022-12-18T00:38:08;-3.10;99.90
10192;DHT22;17580;50.850;4.504;2022-12-18T00:40:35;-3.00;99.90
10192;DHT22;17580;50.850;4.504;2022-12-18T00:43:02;-2.90;99.90
10192;DHT22;17580;50.850;4.504;2022-12-18T00:45:29;-2.90;99.90
10192;DHT22;17580;50.850;4.504;2022-12-18T00:47:57;-3.00;99.90
10192;DHT22;17580;50.850;4.504;2022-12-18T00:50:24;-3.10;99.90
10192;DHT22;17580;50.850;4.504;2022-12-18T00:52:53;-3.20;99.90
10192;DHT22;17580;50.850;4.504;2022-12-18T00:55:20;-3.20;99.90
10192;DHT22;17580;50.850;4.504;2022-12-18T00:57:47;-3.10;99.90
10192;DHT22;17580;50.850;4.504;2022-12-18T01:00:15;-3.10;99.90
10192;DHT22;17580;50.850;4.504;2022-12-18T01:02:42;-3.00;99.90
10192;DHT22;17580;50.850;4.504;2022-12-18T01:05:10;-3.00;99.90
10192;DHT22;17580;50.850;4.504;2022-12-18T01:07:37;-3.10;99.90
10192;DHT22;17580;50.850;4.504;2022-12-18T01:10:08;-3.30;99.90
10192;DHT22;17580;50.850;4.504;2022-12-18T01:12:36;-3.30;99.90
10192;DHT22;17580;50.850;4.504;2022-12-18T01:15:04;-3.50;99.90
10192;DHT22;17580;50.850;4.504;2022-12-18T01:17:31;-3.30;99.90
10192;DHT22;17580;50.850;4.504;2022-12-18T01:19:59;-3.20;99.90
10192;DHT22;17580;50.850;4.504;2022-12-18T01:22:25;-3.20;99.90
10192;DHT22;17580;50.850;4.504;2022-12-18T01:24:52;-3.20;99.90
10192;DHT22;17580;50.850;4.504;2022-12-18T01:27:21;-3.30;99.90
10192;DHT22;17580;50.850;4.504;2022-12-18T01:29:49;-3.50;99.90
10192;DHT22;17580;50.850;4.504;2022-12-18T01:32:16;-3.60;99.90
10192;DHT22;17580;50.850;4.504;2022-12-18T01:34:43;-3.60;99.90
10192;DHT22;17580;50.850;4.504;2022-12-18T01:37:10;-3.60;99.90
10192;DHT22;17580;50.850;4.504;2022-12-18T01:39:37;-3.60;99.90
10192;DHT22;17580;50.850;4.504;2022-12-18T01:42:10;-3.60;99.90
10192;DHT22;17580;50.850;4.504;2022-12-18T01:45:00;-3.60;99.90
10192;DHT22;17580;50.850;4.504;2022-12-18T01:47:32;-3.50;99.90
10192;DHT22;17580;50.850;4.504;2022-12-18T01:50:03;-3.40;99.90
10192;DHT22;17580;50.850;4.504;2022-12-18T01:52:32;-3.20;99.90
10192;DHT22;17580;50.850;4.504;2022-12-18T01:54:59;-3.30;99.90
10192;DHT22;17580;50.850;4.504;2022-12-18T01:57:28;-3.50;99.90
10192;DHT22;17580;50.850;4.504;2022-12-18T02:00:03;-3.60;99.90
10192;DHT22;17580;50.850;4.504;2022-12-18T02:02:30;-3.70;99.90
10192;DHT22;17580;50.850;4.504;2022-12-18T02:04:58;-3.70;99.90
10192;DHT22;17580;50.850;4.504;2022-12-18T02:07:31;-3.70;99.90
10192;DHT22;17580;50.850;4.504;2022-12-18T02:10:03;-3.70;99.90
10192;DHT22;17580;50.850;4.504;2022-12-18T02:12:39;-3.60;99.90
10192;DHT22;17580;50.850;4.504;2022-12-18T02:15:15;-3.70;99.90
10192;DHT22;17580;50.850;4.504;2022-12-18T02:17:48;-3.70;99.90
10192;DHT22;17580;50.850;4.504;2022-12-18T02:20:20;-3.70;99.90
10192;DHT22;17580;50.850;4.504;2022-12-18T02:23:04;-3.70;99.90
10192;DHT22;17580;50.850;4.504;2022-12-18T02:28:16;-3.70;99.90
10192;DHT22;17580;50.850;4.504;2022-12-18T02:30:48;-3.90;99.90
10192;DHT22;17580;50.850;4.504;2022-12-18T02:33:16;-3.90;99.90
10192;DHT22;17580;50.850;4.504;2022-12-18T02:35:45;-3.90;99.90
10192;DHT22;17580;50.850;4.504;2022-12-18T02:38:14;-3.90;99.90
10192;DHT22;17580;50.850;4.504;2022-12-18T02:40:42;-3.80;99.90
10192;DHT22;17580;50.850;4.504;2022-12-18T02:43:11;-3.70;99.90
10192;DHT22;17580;50.850;4.504;2022-12-18T02:45:49;-3.70;99.90
10192;DHT22;17580;50.850;4.504;2022-12-18T02:48:18;-3.80;99.90
10192;DHT22;17580;50.850;4.504;2022-12-18T02:50:54;-3.70;99.90
10192;DHT22;17580;50.850;4.504;2022-12-18T02:53:28;-3.70;99.90
10192;DHT22;17580;50.850;4.504;2022-12-18T02:56:03;-3.70;99.90
10192;DHT22;17580;50.850;4.504;2022-12-18T02:58:37;-3.70;99.90
10192;DHT22;17580;50.850;4.504;2022-12-18T03:01:11;-3.70;99.90
10192;DHT22;17580;50.850;4.504;2022-12-18T03:03:43;-3.90;96.40
10192;DHT22;17580;50.850;4.504;2022-12-18T03:06:20;-4.10;98.50
10192;DHT22;17580;50.850;4.504;2022-12-18T03:08:56;-4.00;99.90
10192;DHT22;17580;50.850;4.504;2022-12-18T03:11:26;-3.90;99.90
10192;DHT22;17580;50.850;4.504;2022-12-18T03:14:09;-3.90;98.40
10192;DHT22;17580;50.850;4.504;2022-12-18T03:16:40;-4.20;97.40
10192;DHT22;17580;50.850;4.504;2022-12-18T03:19:10;-4.20;99.90
10192;DHT22;17580;50.850;4.504;2022-12-18T03:21:42;-4.10;99.90
10192;DHT22;17580;50.850;4.504;2022-12-18T03:24:11;-4.10;98.50
10192;DHT22;17580;50.850;4.504;2022-12-18T03:26:40;-4.20;98.40
10192;DHT22;17580;50.850;4.504;2022-12-18T03:29:14;-4.20;99.90
10192;DHT22;17580;50.850;4.504;2022-12-18T03:31:49;-4.00;99.90
10192;DHT22;17580;50.850;4.504;2022-12-18T03:34:23;-3.90;99.90
10192;DHT22;17580;50.850;4.504;2022-12-18T03:36:51;-4.10;99.20
10192;DHT22;17580;50.850;4.504;2022-12-18T03:39:19;-4.20;97.40
10192;DHT22;17580;50.850;4.504;2022-12-18T03:41:52;-4.30;98.00
10192;DHT22;17580;50.850;4.504;2022-12-18T03:44:29;-4.40;98.00
10192;DHT22;17580;50.850;4.504;2022-12-18T03:47:06;-4.50;98.10
10192;DHT22;17580;50.850;4.504;2022-12-18T03:49:38;-4.60;99.40
10192;DHT22;17580;50.850;4.504;2022-12-18T03:52:10;-4.50;98.70
10192;DHT22;17580;50.850;4.504;2022-12-18T03:54:39;-4.50;99.40
10192;DHT22;17580;50.850;4.504;2022-12-18T03:57:16;-4.50;97.90
10192;DHT22;17580;50.850;4.504;2022-12-18T03:59:44;-4.40;97.20
10192;DHT22;17580;50.850;4.504;2022-12-18T04:02:14;-4.40;96.90
10192;DHT22;17580;50.850;4.504;2022-12-18T04:04:43;-4.40;96.70
10192;DHT22;17580;50.850;4.504;2022-12-18T04:07:12;-4.40;96.40
10192;DHT22;17580;50.850;4.504;2022-12-18T04:09:41;-4.60;95.10
10192;DHT22;17580;50.850;4.504;2022-12-18T04:12:10;-4.70;95.30
10192;DHT22;17580;50.850;4.504;2022-12-18T04:14:37;-4.70;96.40
10192;DHT22;17580;50.850;4.504;2022-12-18T04:17:04;-4.80;96.20
10192;DHT22;17580;50.850;4.504;2022-12-18T04:19:32;-4.80;97.10
10192;DHT22;17580;50.850;4.504;2022-12-18T04:21:59;-4.70;99.80
10192;DHT22;17580;50.850;4.504;2022-12-18T04:24:26;-4.50;99.90
10192;DHT22;17580;50.850;4.504;2022-12-18T04:26:53;-4.30;99.90
10192;DHT22;17580;50.850;4.504;2022-12-18T04:29:20;-4.30;98.30
10192;DHT22;17580;50.850;4.504;2022-12-18T04:31:47;-4.20;95.90
10192;DHT22;17580;50.850;4.504;2022-12-18T04:34:14;-4.40;97.70
10192;DHT22;17580;50.850;4.504;2022-12-18T04:36:42;-4.50;94.90
10192;DHT22;17580;50.850;4.504;2022-12-18T04:39:09;-4.60;98.20
10192;DHT22;17580;50.850;4.504;2022-12-18T04:41:36;-4.50;97.60
10192;DHT22;17580;50.850;4.504;2022-12-18T04:44:04;-4.40;99.90
10192;DHT22;17580;50.850;4.504;2022-12-18T04:46:31;-4.50;95.40
10192;DHT22;17580;50.850;4.504;2022-12-18T04:48:58;-4.60;96.80
10192;DHT22;17580;50.850;4.504;2022-12-18T04:51:25;-4.70;96.60
10192;DHT22;17580;50.850;4.504;2022-12-18T04:53:53;-4.60;98.40
10192;DHT22;17580;50.850;4.504;2022-12-18T04:56:21;-4.40;99.90
10192;DHT22;17580;50.850;4.504;2022-12-18T04:58:48;-4.50;94.50
10192;DHT22;17580;50.850;4.504;2022-12-18T05:01:17;-4.60;94.90
10192;DHT22;17580;50.850;4.504;2022-12-18T05:03:44;-4.70;96.50
10192;DHT22;17580;50.850;4.504;2022-12-18T05:06:11;-4.70;96.70
10192;DHT22;17580;50.850;4.504;2022-12-18T05:08:38;-4.80;98.00
10192;DHT22;17580;50.850;4.504;2022-12-18T05:11:08;-4.60;94.80
10192;DHT22;17580;50.850;4.504;2022-12-18T05:13:36;-4.80;93.80
10192;DHT22;17580;50.850;4.504;2022-12-18T05:16:04;-4.90;95.80
10192;DHT22;17580;50.850;4.504;2022-12-18T05:18:32;-4.90;97.50
10192;DHT22;17580;50.850;4.504;2022-12-18T05:20:59;-4.70;98.20
10192;DHT22;17580;50.850;4.504;2022-12-18T05:23:26;-4.70;96.30
10192;DHT22;17580;50.850;4.504;2022-12-18T05:25:55;-4.70;94.20
10192;DHT22;17580;50.850;4.504;2022-12-18T05:28:24;-4.80;94.70
10192;DHT22;17580;50.850;4.504;2022-12-18T05:30:53;-4.80;93.30
10192;DHT22;17580;50.850;4.504;2022-12-18T05:33:21;-4.70;95.60
10192;DHT22;17580;50.850;4.504;2022-12-18T05:35:50;-4.60;94.40
10192;DHT22;17580;50.850;4.504;2022-12-18T05:38:17;-4.60;97.10
10192;DHT22;17580;50.850;4.504;2022-12-18T05:40:44;-4.60;95.20
10192;DHT22;17580;50.850;4.504;2022-12-18T05:43:11;-4.50;96.80
10192;DHT22;17580;50.850;4.504;2022-12-18T05:45:40;-4.50;97.40
10192;DHT22;17580;50.850;4.504;2022-12-18T05:48:08;-4.50;97.20
10192;DHT22;17580;50.850;4.504;2022-12-18T05:50:39;-4.60;97.50
10192;DHT22;17580;50.850;4.504;2022-12-18T05:53:07;-4.60;97.30
10192;DHT22;17580;50.850;4.504;2022-12-18T05:55:34;-4.50;99.30
10192;DHT22;17580;50.850;4.504;2022-12-18T05:58:02;-4.40;98.60
10192;DHT22;17580;50.850;4.504;2022-12-18T06:00:29;-4.40;99.90
10192;DHT22;17580;50.850;4.504;2022-12-18T06:02:57;-4.30;98.40
10192;DHT22;17580;50.850;4.504;2022-12-18T06:05:24;-4.20;97.40
10192;DHT22;17580;50.850;4.504;2022-12-18T06:07:51;-4.30;98.60
10192;DHT22;17580;50.850;4.504;2022-12-18T06:10:18;-4.20;98.00
10192;DHT22;17580;50.850;4.504;2022-12-18T06:12:46;-4.20;96.50
10192;DHT22;17580;50.850;4.504;2022-12-18T06:15:13;-4.20;96.80
10192;DHT22;17580;50.850;4.504;2022-12-18T06:17:40;-4.30;96.00
10192;DHT22;17580;50.850;4.504;2022-12-18T06:20:09;-4.30;96.20
10192;DHT22;17580;50.850;4.504;2022-12-18T06:22:36;-4.30;97.90
10192;DHT22;17580;50.850;4.504;2022-12-18T06:25:04;-4.30;97.30
10192;DHT22;17580;50.850;4.504;2022-12-18T06:27:31;-4.30;96.90
10192;DHT22;17580;50.850;4.504;2022-12-18T06:29:59;-4.40;95.20
10192;DHT22;17580;50.850;4.504;2022-12-18T06:32:26;-4.50;97.10
10192;DHT22;17580;50.850;4.504;2022-12-18T06:34:53;-4.50;97.90
10192;DHT22;17580;50.850;4.504;2022-12-18T06:37:22;-4.50;98.20
10192;DHT22;17580;50.850;4.504;2022-12-18T06:39:51;-4.50;97.90
10192;DHT22;17580;50.850;4.504;2022-12-18T06:42:18;-4.50;97.60
10192;DHT22;17580;50.850;4.504;2022-12-18T06:44:45;-4.50;98.50
10192;DHT22;17580;50.850;4.504;2022-12-18T06:47:12;-4.40;97.30
10192;DHT22;17580;50.850;4.504;2022-12-18T06:49:39;-4.50;96.90
10192;DHT22;17580;50.850;4.504;2022-12-18T06:52:06;-4.40;96.70
10192;DHT22;17580;50.850;4.504;2022-12-18T06:54:34;-4.40;96.80
10192;DHT22;17580;50.850;4.504;2022-12-18T06:57:01;-4.40;95.60
10192;DHT22;17580;50.850;4.504;2022-12-18T06:59:28;-4.40;96.60
10192;DHT22;17580;50.850;4.504;2022-12-18T07:01:55;-4.40;96.50
10192;DHT22;17580;50.850;4.504;2022-12-18T07:04:22;-4.40;96.50
10192;DHT22;17580;50.850;4.504;2022-12-18T07:06:53;-4.40;97.30
10192;DHT22;17580;50.850;4.504;2022-12-18T07:09:20;-4.40;97.80
10192;DHT22;17580;50.850;4.504;2022-12-18T07:11:49;-4.30;96.70
10192;DHT22;17580;50.850;4.504;2022-12-18T07:14:15;-4.40;96.40
10192;DHT22;17580;50.850;4.504;2022-12-18T07:16:42;-4.40;97.40
10192;DHT22;17580;50.850;4.504;2022-12-18T07:19:10;-4.40;98.30
10192;DHT22;17580;50.850;4.504;2022-12-18T07:21:36;-4.30;97.10
10192;DHT22;17580;50.850;4.504;2022-12-18T07:24:04;-4.20;97.20
10192;DHT22;17580;50.850;4.504;2022-12-18T07:26:31;-4.20;95.20
10192;DHT22;17580;50.850;4.504;2022-12-18T07:29:01;-4.20;94.20
10192;DHT22;17580;50.850;4.504;2022-12-18T07:31:28;-4.20;95.40
10192;DHT22;17580;50.850;4.504;2022-12-18T07:33:55;-4.20;96.10
10192;DHT22;17580;50.850;4.504;2022-12-18T07:36:22;-4.30;94.40
10192;DHT22;17580;50.850;4.504;2022-12-18T07:38:50;-4.30;95.00
10192;DHT22;17580;50.850;4.504;2022-12-18T07:41:18;-4.40;94.70
10192;DHT22;17580;50.850;4.504;2022-12-18T07:43:45;-4.50;95.30
10192;DHT22;17580;50.850;4.504;2022-12-18T07:46:15;-4.50;95.80
10192;DHT22;17580;50.850;4.504;2022-12-18T07:48:42;-4.50;96.80
10192;DHT22;17580;50.850;4.504;2022-12-18T07:51:12;-4.40;96.60
10192;DHT22;17580;50.850;4.504;2022-12-18T07:53:40;-4.40;95.30
10192;DHT22;17580;50.850;4.504;2022-12-18T07:56:09;-4.30;95.10
10192;DHT22;17580;50.850;4.504;2022-12-18T07:58:36;-4.30;95.00
10192;DHT22;17580;50.850;4.504;2022-12-18T08:01:05;-4.30;93.10
10192;DHT22;17580;50.850;4.504;2022-12-18T08:03:33;-4.30;94.50
10192;DHT22;17580;50.850;4.504;2022-12-18T08:06:01;-4.40;94.60
10192;DHT22;17580;50.850;4.504;2022-12-18T08:08:29;-4.30;95.20
10192;DHT22;17580;50.850;4.504;2022-12-18T08:10:56;-4.20;95.60
10192;DHT22;17580;50.850;4.504;2022-12-18T08:13:24;-4.10;95.80
10192;DHT22;17580;50.850;4.504;2022-12-18T08:15:58;-4.00;93.60
10192;DHT22;17580;50.850;4.504;2022-12-18T08:18:25;-3.90;93.30
10192;DHT22;17580;50.850;4.504;2022-12-18T08:20:56;-3.80;92.70
10192;DHT22;17580;50.850;4.504;2022-12-18T08:23:22;-3.70;92.10
10192;DHT22;17580;50.850;4.504;2022-12-18T08:25:50;-3.60;92.30
10192;DHT22;17580;50.850;4.504;2022-12-18T08:28:17;-3.50;91.80
10192;DHT22;17580;50.850;4.504;2022-12-18T08:30:44;-3.30;91.00
10192;DHT22;17580;50.850;4.504;2022-12-18T08:33:11;-3.10;88.70
10192;DHT22;17580;50.850;4.504;2022-12-18T08:35:38;-3.10;88.70
10192;DHT22;17580;50.850;4.504;2022-12-18T08:38:07;-3.00;87.90
10192;DHT22;17580;50.850;4.504;2022-12-18T08:40:34;-2.90;89.50
10192;DHT22;17580;50.850;4.504;2022-12-18T08:43:00;-2.80;85.20
10192;DHT22;17580;50.850;4.504;2022-12-18T08:45:45;-2.90;89.70
10192;DHT22;17580;50.850;4.504;2022-12-18T08:48:12;-2.80;87.70
10192;DHT22;17580;50.850;4.504;2022-12-18T08:50:40;-2.80;90.00
10192;DHT22;17580;50.850;4.504;2022-12-18T08:53:09;-2.70;90.00
10192;DHT22;17580;50.850;4.504;2022-12-18T08:55:36;-2.60;87.00
10192;DHT22;17580;50.850;4.504;2022-12-18T08:58:03;-2.50;86.10
10192;DHT22;17580;50.850;4.504;2022-12-18T09:00:30;-2.50;88.80
10192;DHT22;17580;50.850;4.504;2022-12-18T09:02:57;-2.40;89.40
10192;DHT22;17580;50.850;4.504;2022-12-18T09:05:24;-2.40;87.80
10192;DHT22;17580;50.850;4.504;2022-12-18T09:07:51;-2.30;90.00
10192;DHT22;17580;50.850;4.504;2022-12-18T09:10:19;-2.20;84.50
10192;DHT22;17580;50.850;4.504;2022-12-18T09:12:46;-2.20;83.00
10192;DHT22;17580;50.850;4.504;2022-12-18T09:15:13;-2.10;84.30
10192;DHT22;17580;50.850;4.504;2022-12-18T09:17:40;-2.10;83.10
10192;DHT22;17580;50.850;4.504;2022-12-18T09:20:08;-2.00;84.80
10192;DHT22;17580;50.850;4.504;2022-12-18T09:22:35;-2.00;83.10
10192;DHT22;17580;50.850;4.504;2022-12-18T09:25:02;-2.00;82.30
10192;DHT22;17580;50.850;4.504;2022-12-18T09:27:31;-2.00;81.80
10192;DHT22;17580;50.850;4.504;2022-12-18T09:29:58;-2.00;86.40
10192;DHT22;17580;50.850;4.504;2022-12-18T09:32:25;-1.90;86.60
10192;DHT22;17580;50.850;4.504;2022-12-18T09:34:52;-1.80;82.40
10192;DHT22;17580;50.850;4.504;2022-12-18T09:37:19;-1.80;86.90
10192;DHT22;17580;50.850;4.504;2022-12-18T09:39:45;-1.70;88.30
10192;DHT22;17580;50.850;4.504;2022-12-18T09:42:19;-1.60;85.50
10192;DHT22;17580;50.850;4.504;2022-12-18T09:44:50;-1.60;84.40
10192;DHT22;17580;50.850;4.504;2022-12-18T09:47:19;-1.50;88.90
10192;DHT22;17580;50.850;4.504;2022-12-18T09:49:50;-1.50;90.30
10192;DHT22;17580;50.850;4.504;2022-12-18T09:52:24;-1.50;88.60
10192;DHT22;17580;50.850;4.504;2022-12-18T09:54:54;-1.40;86.70
10192;DHT22;17580;50.850;4.504;2022-12-18T09:57:24;-1.40;80.50
10192;DHT22;17580;50.850;4.504;2022-12-18T09:59:56;-1.40;80.00
10192;DHT22;17580;50.850;4.504;2022-12-18T10:02:26;-1.30;87.60
10192;DHT22;17580;50.850;4.504;2022-12-18T10:05:02;-1.20;90.90
10192;DHT22;17580;50.850;4.504;2022-12-18T10:07:39;-1.20;86.10
10192;DHT22;17580;50.850;4.504;2022-12-18T10:10:15;-1.10;87.30
10192;DHT22;17580;50.850;4.504;2022-12-18T10:12:52;-1.00;85.30
10192;DHT22;17580;50.850;4.504;2022-12-18T10:15:27;-1.00;87.50
10192;DHT22;17580;50.850;4.504;2022-12-18T10:18:03;-0.90;91.00
10192;DHT22;17580;50.850;4.504;2022-12-18T10:20:40;-1.00;90.30
10192;DHT22;17580;50.850;4.504;2022-12-18T10:23:14;-0.90;93.30
10192;DHT22;17580;50.850;4.504;2022-12-18T10:25:50;-0.80;91.30
10192;DHT22;17580;50.850;4.504;2022-12-18T10:28:20;-0.70;90.10
10192;DHT22;17580;50.850;4.504;2022-12-18T10:30:48;-0.70;88.70
10192;DHT22;17580;50.850;4.504;2022-12-18T10:33:18;-0.70;89.90
10192;DHT22;17580;50.850;4.504;2022-12-18T10:35:48;-0.70;88.60
10192;DHT22;17580;50.850;4.504;2022-12-18T10:38:24;-0.60;86.10
10192;DHT22;17580;50.850;4.504;2022-12-18T10:40:54;-0.70;90.40
10192;DHT22;17580;50.850;4.504;2022-12-18T10:43:25;-0.70;92.20
10192;DHT22;17580;50.850;4.504;2022-12-18T10:46:15;-0.60;92.00
10192;DHT22;17580;50.850;4.504;2022-12-18T10:48:53;-0.60;94.20
10192;DHT22;17580;50.850;4.504;2022-12-18T10:51:23;-0.50;92.90
10192;DHT22;17580;50.850;4.504;2022-12-18T10:53:59;-0.30;92.20
10192;DHT22;17580;50.850;4.504;2022-12-18T10:56:28;-0.30;88.20
10192;DHT22;17580;50.850;4.504;2022-12-18T10:58:58;-0.30;90.70
10192;DHT22;17580;50.850;4.504;2022-12-18T11:01:28;-0.20;87.30
10192;DHT22;17580;50.850;4.504;2022-12-18T11:04:05;-0.10;90.10
10192;DHT22;17580;50.850;4.504;2022-12-18T11:06:34;0.00;89.10
10192;DHT22;17580;50.850;4.504;2022-12-18T11:09:20;0.00;88.60
10192;DHT22;17580;50.850;4.504;2022-12-18T11:11:49;0.10;89.10
10192;DHT22;17580;50.850;4.504;2022-12-18T11:14:21;0.10;87.30
10192;DHT22;17580;50.850;4.504;2022-12-18T11:16:51;0.10;83.40
10192;DHT22;17580;50.850;4.504;2022-12-18T11:19:30;0.20;88.70
10192;DHT22;17580;50.850;4.504;2022-12-18T11:21:58;0.30;90.90
10192;DHT22;17580;50.850;4.504;2022-12-18T11:24:29;0.30;90.00
10192;DHT22;17580;50.850;4.504;2022-12-18T11:27:00;0.30;91.70
10192;DHT22;17580;50.850;4.504;2022-12-18T11:29:33;0.30;89.70
10192;DHT22;17580;50.850;4.504;2022-12-18T11:32:28;0.40;89.90
10192;DHT22;17580;50.850;4.504;2022-12-18T11:35:02;0.40;90.10
10192;DHT22;17580;50.850;4.504;2022-12-18T11:37:31;0.50;90.60
10192;DHT22;17580;50.850;4.504;2022-12-18T11:40:03;0.50;91.00
10192;DHT22;17580;50.850;4.504;2022-12-18T11:42:37;0.60;89.90
10192;DHT22;17580;50.850;4.504;2022-12-18T11:45:25;0.50;92.10
10192;DHT22;17580;50.850;4.504;2022-12-18T11:48:01;0.60;85.20
10192;DHT22;17580;50.850;4.504;2022-12-18T11:50:33;0.60;85.70
10192;DHT22;17580;50.850;4.504;2022-12-18T11:53:04;0.80;75.90
10192;DHT22;17580;50.850;4.504;2022-12-18T11:55:41;0.80;77.20
10192;DHT22;17580;50.850;4.504;2022-12-18T11:58:17;0.80;83.80
10192;DHT22;17580;50.850;4.504;2022-12-18T12:00:52;0.90;74.60
10192;DHT22;17580;50.850;4.504;2022-12-18T12:03:48;1.00;76.10
10192;DHT22;17580;50.850;4.504;2022-12-18T12:06:21;1.00;75.00
10192;DHT22;17580;50.850;4.504;2022-12-18T12:09:00;1.10;70.60
10192;DHT22;17580;50.850;4.504;2022-12-18T12:11:35;1.10;70.00
10192;DHT22;17580;50.850;4.504;2022-12-18T12:14:31;1.20;69.10
10192;DHT22;17580;50.850;4.504;2022-12-18T12:17:02;1.20;66.50
10192;DHT22;17580;50.850;4.504;2022-12-18T12:19:39;1.20;67.80
10192;DHT22;17580;50.850;4.504;2022-12-18T12:22:16;1.30;66.60
10192;DHT22;17580;50.850;4.504;2022-12-18T12:24:56;1.30;65.40
10192;DHT22;17580;50.850;4.504;2022-12-18T12:27:34;1.30;65.20
10192;DHT22;17580;50.850;4.504;2022-12-18T12:30:07;1.30;67.20
10192;DHT22;17580;50.850;4.504;2022-12-18T12:33:01;1.40;67.70
10192;DHT22;17580;50.850;4.504;2022-12-18T12:35:44;1.30;65.40
10192;DHT22;17580;50.850;4.504;2022-12-18T12:38:17;1.40;65.00
10192;DHT22;17580;50.850;4.504;2022-12-18T12:40:51;1.50;66.60
10192;DHT22;17580;50.850;4.504;2022-12-18T12:43:31;1.50;64.30
10192;DHT22;17580;50.850;4.504;2022-12-18T12:46:00;1.50;61.90
10192;DHT22;17580;50.850;4.504;2022-12-18T12:48:42;1.50;62.40
10192;DHT22;17580;50.850;4.504;2022-12-18T12:51:15;1.50;62.60
10192;DHT22;17580;50.850;4.504;2022-12-18T12:53:43;1.50;62.70
10192;DHT22;17580;50.850;4.504;2022-12-18T12:56:12;1.50;62.30
10192;DHT22;17580;50.850;4.504;2022-12-18T12:58:46;1.60;62.90
10192;DHT22;17580;50.850;4.504;2022-12-18T13:01:23;1.60;61.70
10192;DHT22;17580;50.850;4.504;2022-12-18T13:03:57;1.70;63.00
10192;DHT22;17580;50.850;4.504;2022-12-18T13:06:35;1.70;61.20
10192;DHT22;17580;50.850;4.504;2022-12-18T13:09:04;1.60;60.80
10192;DHT22;17580;50.850;4.504;2022-12-18T13:11:41;1.60;61.30
10192;DHT22;17580;50.850;4.504;2022-12-18T13:14:31;1.70;62.30
10192;DHT22;17580;50.850;4.504;2022-12-18T13:17:27;1.80;62.20
10192;DHT22;17580;50.850;4.504;2022-12-18T13:20:08;1.70;61.80
10192;DHT22;17580;50.850;4.504;2022-12-18T13:22:38;1.70;61.30
10192;DHT22;17580;50.850;4.504;2022-12-18T13:25:27;1.80;61.70
10192;DHT22;17580;50.850;4.504;2022-12-18T13:28:12;1.80;60.20
10192;DHT22;17580;50.850;4.504;2022-12-18T13:30:57;1.80;60.70
10192;DHT22;17580;50.850;4.504;2022-12-18T13:33:45;1.80;60.60
10192;DHT22;17580;50.850;4.504;2022-12-18T13:36:15;1.80;61.60
10192;DHT22;17580;50.850;4.504;2022-12-18T13:38:44;1.80;61.60
10192;DHT22;17580;50.850;4.504;2022-12-18T13:41:25;1.80;61.90
10192;DHT22;17580;50.850;4.504;2022-12-18T13:43:52;1.80;60.10
10192;DHT22;17580;50.850;4.504;2022-12-18T13:46:26;1.70;59.90
10192;DHT22;17580;50.850;4.504;2022-12-18T13:49:00;1.70;59.70
10192;DHT22;17580;50.850;4.504;2022-12-18T13:51:30;1.60;61.10
10192;DHT22;17580;50.850;4.504;2022-12-18T13:54:00;1.70;63.00
10192;DHT22;17580;50.850;4.504;2022-12-18T13:56:30;1.70;61.90
10192;DHT22;17580;50.850;4.504;2022-12-18T13:59:19;1.70;61.90
10192;DHT22;17580;50.850;4.504;2022-12-18T14:01:50;1.70;63.00
10192;DHT22;17580;50.850;4.504;2022-12-18T14:04:26;1.70;62.30
10192;DHT22;17580;50.850;4.504;2022-12-18T14:06:56;1.80;62.80
10192;DHT22;17580;50.850;4.504;2022-12-18T14:09:29;1.80;62.10
10192;DHT22;17580;50.850;4.504;2022-12-18T14:11:57;1.80;61.60
10192;DHT22;17580;50.850;4.504;2022-12-18T14:14:41;1.80;60.90
10192;DHT22;17580;50.850;4.504;2022-12-18T14:17:09;1.80;60.90
10192;DHT22;17580;50.850;4.504;2022-12-18T14:19:37;1.80;59.60
10192;DHT22;17580;50.850;4.504;2022-12-18T14:22:13;1.90;60.70
10192;DHT22;17580;50.850;4.504;2022-12-18T14:24:43;1.90;60.70
10192;DHT22;17580;50.850;4.504;2022-12-18T14:27:20;1.80;59.70
10192;DHT22;17580;50.850;4.504;2022-12-18T14:29:47;1.80;59.70
10192;DHT22;17580;50.850;4.504;2022-12-18T14:32:16;1.80;59.80
10192;DHT22;17580;50.850;4.504;2022-12-18T14:34:44;1.80;59.10
10192;DHT22;17580;50.850;4.504;2022-12-18T14:37:12;1.80;61.20
10192;DHT22;17580;50.850;4.504;2022-12-18T14:39:40;1.80;61.60
10192;DHT22;17580;50.850;4.504;2022-12-18T14:42:11;1.80;58.90
10192;DHT22;17580;50.850;4.504;2022-12-18T14:44:38;1.90;60.70
10192;DHT22;17580;50.850;4.504;2022-12-18T14:47:13;1.90;59.50
10192;DHT22;17580;50.850;4.504;2022-12-18T14:49:41;1.80;60.30
10192;DHT22;17580;50.850;4.504;2022-12-18T14:52:19;1.90;59.70
10192;DHT22;17580;50.850;4.504;2022-12-18T14:54:47;1.80;59.50
10192;DHT22;17580;50.850;4.504;2022-12-18T14:57:21;1.80;59.90
10192;DHT22;17580;50.850;4.504;2022-12-18T14:59:49;1.80;60.10
10192;DHT22;17580;50.850;4.504;2022-12-18T15:02:20;1.80;59.70
10192;DHT22;17580;50.850;4.504;2022-12-18T15:05:00;1.80;59.50
10192;DHT22;17580;50.850;4.504;2022-12-18T15:07:34;1.70;60.30
10192;DHT22;17580;50.850;4.504;2022-12-18T15:10:11;1.70;59.80
10192;DHT22;17580;50.850;4.504;2022-12-18T15:12:42;1.70;59.60
10192;DHT22;17580;50.850;4.504;2022-12-18T15:15:47;1.70;60.60
10192;DHT22;17580;50.850;4.504;2022-12-18T15:18:16;1.70;60.00
10192;DHT22;17580;50.850;4.504;2022-12-18T15:20:45;1.70;60.70
10192;DHT22;17580;50.850;4.504;2022-12-18T15:23:19;1.70;59.90
10192;DHT22;17580;50.850;4.504;2022-12-18T15:25:48;1.70;59.70
10192;DHT22;17580;50.850;4.504;2022-12-18T15:28:21;1.70;59.50
10192;DHT22;17580;50.850;4.504;2022-12-18T15:31:02;1.70;61.20
10192;DHT22;17580;50.850;4.504;2022-12-18T15:33:32;1.70;61.50
10192;DHT22;17580;50.850;4.504;2022-12-18T15:36:01;1.70;60.00
10192;DHT22;17580;50.850;4.504;2022-12-18T15:38:28;1.60;59.20
10192;DHT22;17580;50.850;4.504;2022-12-18T15:40:55;1.60;60.10
10192;DHT22;17580;50.850;4.504;2022-12-18T15:43:25;1.60;59.90
10192;DHT22;17580;50.850;4.504;2022-12-18T15:46:03;1.60;60.30
10192;DHT22;17580;50.850;4.504;2022-12-18T15:48:38;1.70;60.40
10192;DHT22;17580;50.850;4.504;2022-12-18T15:51:12;1.70;60.10
10192;DHT22;17580;50.850;4.504;2022-12-18T15:53:41;1.60;59.70
10192;DHT22;17580;50.850;4.504;2022-12-18T15:56:10;1.60;59.90
10192;DHT22;17580;50.850;4.504;2022-12-18T15:58:57;1.60;60.30
10192;DHT22;17580;50.850;4.504;2022-12-18T16:01:26;1.60;60.30